APL Norway — A8NC4 — position and weather

sailwx.info

Track history (hours):
 
Tides and Currents Weather Stations Pressure Air Temp Water Temp Dewpoint Dewpoint Depression Visibility Wind Speed Wind Dir Waves Ship Positions

APL Norway

Last reported at 2015-Sep-01 03:27 UTC. Time now 2015-Sep-01 12:12 UTC.
Position N 35°04' E 140°46'.

Length 295 m; draft 12.5 m.

Type: Cargo ship. MMSI: 636013456.

Date/timePositionNaut miles runAvg speedWind from/ knotsBaromVisibWave heightAir tempDewpointWater temp
2015-Sep-01 03:27N 35°04' E 140°46'1921.6
2015-Sep-01 02:33N 34°55' E 140°25'2020.5
2015-Sep-01 01:33N 34°45' E 140°03'2019.0
2015-Sep-01 00:31N 34°37' E 139°41'2719.3
2015-Aug-31 23:08N 34°31' E 139°10'  
2015-Aug-26 22:14N 22°08' E 114°32'1319.4
2015-Aug-26 21:33N 22°07' E 114°18'1412.7
2015-Aug-26 20:26N 22°16' E 114°06'4 3.8
2015-Aug-26 19:29N 22°20' E 114°08'0 0.0
2015-Aug-26 18:32N 22°20' E 114°08'0 0.0
2015-Aug-26 17:32N 22°20' E 114°08'0 0.0
2015-Aug-26 16:32N 22°20' E 114°08'0 0.0
2015-Aug-26 15:29N 22°20' E 114°08'0 0.0
2015-Aug-26 14:32N 22°20' E 114°08'0 0.0
2015-Aug-26 13:32N 22°20' E 114°08'0 0.0
2015-Aug-26 12:32N 22°20' E 114°08'0 0.0
2015-Aug-26 11:32N 22°20' E 114°08'0 0.0
2015-Aug-26 10:29N 22°20' E 114°08'0 0.0
2015-Aug-26 09:29N 22°20' E 114°08'0 0.0
2015-Aug-26 08:32N 22°20' E 114°08'14 6.9
2015-Aug-26 06:33N 22°23' E 113°54'4 4.2
2015-Aug-26 05:31N 22°28' E 113°53'0 0.0
2015-Aug-26 04:25N 22°28' E 113°53'0 0.0
2015-Aug-26 03:31N 22°28' E 113°53'0 0.0
2015-Aug-26 02:19N 22°28' E 113°53'0 0.0
2015-Aug-26 01:19N 22°28' E 113°53'0 0.0
2015-Aug-25 17:13N 22°28' E 113°53'15 5.7
2015-Aug-25 14:34N 22°18' E 114°06'11 9.5
2015-Aug-25 13:22N 22°10' E 114°13'911.1
2015-Aug-25 12:33N 22°09' E 114°23'1212.0
2015-Aug-25 11:31N 22°07' E 114°36'66514.2
2015-Aug-23 12:32N 30°25' E 122°48'39 9.1
2015-Aug-23 08:14N 30°37' E 122°04'0 0.0
2015-Aug-23 07:32N 30°37' E 122°04'0 0.0
2015-Aug-23 06:26N 30°37' E 122°04'0 0.0
2015-Aug-23 05:29N 30°37' E 122°04'0 0.0
2015-Aug-23 04:29N 30°37' E 122°04'0 0.0
2015-Aug-23 03:32N 30°37' E 122°04'0 0.0
2015-Aug-23 02:32N 30°37' E 122°04'0 0.0
2015-Aug-23 01:29N 30°37' E 122°04'0 0.0
2015-Aug-23 00:17N 30°37' E 122°04'0 0.0
2015-Aug-22 23:26N 30°37' E 122°04'0 0.0
2015-Aug-22 22:26N 30°37' E 122°04'0 0.0
2015-Aug-22 21:29N 30°37' E 122°04'0 0.0
2015-Aug-22 20:17N 30°37' E 122°04'  
Track history (hours):
 
Tides and Currents Weather Stations Pressure Air Temp Water Temp Dewpoint Dewpoint Depression Visibility Wind Speed Wind Dir Waves Ship Positions

APL Norway

Last reported at 2015-Sep-01 03:27 UTC. Time now 2015-Sep-01 12:12 UTC.
Position N 35°04' E 140°46'.

Length 295 m; draft 12.5 m.

Type: Cargo ship. MMSI: 636013456.

Date/timePositionNaut miles runAvg speedWind from/ knotsBaromVisibWave heightAir tempDewpointWater temp
2015-Sep-01 03:27N 35°04' E 140°46'1921.6
2015-Sep-01 02:33N 34°55' E 140°25'2020.5
2015-Sep-01 01:33N 34°45' E 140°03'2019.0
2015-Sep-01 00:31N 34°37' E 139°41'2719.3
2015-Aug-31 23:08N 34°31' E 139°10'  
2015-Aug-26 22:14N 22°08' E 114°32'1319.4
2015-Aug-26 21:33N 22°07' E 114°18'1412.7
2015-Aug-26 20:26N 22°16' E 114°06'4 3.8
2015-Aug-26 19:29N 22°20' E 114°08'0 0.0
2015-Aug-26 18:32N 22°20' E 114°08'0 0.0
2015-Aug-26 17:32N 22°20' E 114°08'0 0.0
2015-Aug-26 16:32N 22°20' E 114°08'0 0.0
2015-Aug-26 15:29N 22°20' E 114°08'0 0.0
2015-Aug-26 14:32N 22°20' E 114°08'0 0.0
2015-Aug-26 13:32N 22°20' E 114°08'0 0.0
2015-Aug-26 12:32N 22°20' E 114°08'0 0.0
2015-Aug-26 11:32N 22°20' E 114°08'0 0.0
2015-Aug-26 10:29N 22°20' E 114°08'0 0.0
2015-Aug-26 09:29N 22°20' E 114°08'0 0.0
2015-Aug-26 08:32N 22°20' E 114°08'14 6.9
2015-Aug-26 06:33N 22°23' E 113°54'4 4.2
2015-Aug-26 05:31N 22°28' E 113°53'0 0.0
2015-Aug-26 04:25N 22°28' E 113°53'0 0.0
2015-Aug-26 03:31N 22°28' E 113°53'0 0.0
2015-Aug-26 02:19N 22°28' E 113°53'0 0.0
2015-Aug-26 01:19N 22°28' E 113°53'0 0.0
2015-Aug-25 17:13N 22°28' E 113°53'15 5.7
2015-Aug-25 14:34N 22°18' E 114°06'11 9.5
2015-Aug-25 13:22N 22°10' E 114°13'911.1
2015-Aug-25 12:33N 22°09' E 114°23'1212.0
2015-Aug-25 11:31N 22°07' E 114°36'66514.2
2015-Aug-23 12:32N 30°25' E 122°48'39 9.1
2015-Aug-23 08:14N 30°37' E 122°04'0 0.0
2015-Aug-23 07:32N 30°37' E 122°04'0 0.0
2015-Aug-23 06:26N 30°37' E 122°04'0 0.0
2015-Aug-23 05:29N 30°37' E 122°04'0 0.0
2015-Aug-23 04:29N 30°37' E 122°04'0 0.0
2015-Aug-23 03:32N 30°37' E 122°04'0 0.0
2015-Aug-23 02:32N 30°37' E 122°04'0 0.0
2015-Aug-23 01:29N 30°37' E 122°04'0 0.0
2015-Aug-23 00:17N 30°37' E 122°04'0 0.0
2015-Aug-22 23:26N 30°37' E 122°04'0 0.0
2015-Aug-22 22:26N 30°37' E 122°04'0 0.0
2015-Aug-22 21:29N 30°37' E 122°04'0 0.0
2015-Aug-22 20:17N 30°37' E 122°04'  

Dump ship's entire track history